Time;durP1;ratioP1;P1;durP2;ratioP2;P2;SDS_P1;SDS_P2;PMS_P1;PMS_P2;Temp;Humidity;BMP_temperature;BMP_pressure;BME280_temperature;BME280_humidity;BME280_pressure;Samples;Min_cycle;Max_cycle;Signal;HPM_P1;HPM_P2
2021/09/26 00:04:48;;;;;;;5.67;4.43;;;;;;;14.19;100.00;95370.34;10235637;28;20026;-72
2021/09/26 00:09:48;;;;;;;9.57;4.20;;;;;;;14.03;100.00;95368.81;10245360;28;20081;-74
2021/09/26 00:14:49;;;;;;;8.52;5.63;;;;;;;13.83;100.00;95372.44;10235659;29;20057;-74
2021/09/26 00:19:50;;;;;;;7.03;5.07;;;;;;;13.63;100.00;95368.75;10238567;28;20119;-69
2021/09/26 00:24:51;;;;;;;9.82;4.95;;;;;;;13.55;100.00;95368.50;10237736;29;20501;-66
2021/09/26 00:29:52;;;;;;;7.88;5.25;;;;;;;13.57;100.00;95369.84;10220853;28;20034;-66
2021/09/26 00:34:52;;;;;;;9.83;5.47;;;;;;;13.52;100.00;95361.75;10236398;28;20026;-69
2021/09/26 00:39:52;;;;;;;7.20;4.60;;;;;;;13.63;100.00;95357.13;10236527;28;20271;-74
2021/09/26 00:44:53;;;;;;;8.40;5.40;;;;;;;13.53;100.00;95355.28;10236896;28;20490;-74
2021/09/26 00:49:53;;;;;;;8.73;4.50;;;;;;;13.57;100.00;95364.44;10236298;28;20395;-75
2021/09/26 00:54:54;;;;;;;8.02;4.40;;;;;;;13.68;100.00;95363.31;10253858;28;20673;-71
2021/09/26 00:59:55;;;;;;;12.43;5.07;;;;;;;13.73;100.00;95357.09;10220915;28;20023;-69
2021/09/26 01:04:56;;;;;;;6.03;4.97;;;;;;;13.76;100.00;95359.25;10236203;28;20035;-69
2021/09/26 01:10:02;;;;;;;6.97;4.60;;;;;;;13.73;100.00;95353.56;10236250;28;20028;-75
2021/09/26 01:15:15;;;;;;;9.70;4.32;;;;;;;13.81;100.00;95359.22;10241753;28;20117;-75
2021/09/26 01:20:28;;;;;;;5.10;4.10;;;;;;;13.78;100.00;95351.66;10245163;28;20042;-74
2021/09/26 01:25:37;;;;;;;9.15;4.88;;;;;;;13.82;100.00;95363.53;10244675;29;20595;-70
2021/09/26 01:30:47;;;;;;;7.57;4.47;;;;;;;13.63;100.00;95367.94;10244201;28;20684;-69
2021/09/26 01:35:59;;;;;;;8.10;4.38;;;;;;;13.61;100.00;95370.91;10230782;29;20121;-69
2021/09/26 01:41:13;;;;;;;7.35;3.88;;;;;;;13.49;100.00;95365.84;10243162;28;20023;-72
2021/09/26 01:46:22;;;;;;;5.70;4.15;;;;;;;13.48;100.00;95368.81;10243210;28;20027;-69
2021/09/26 01:51:24;;;;;;;4.60;4.03;;;;;;;13.41;100.00;95366.41;10259377;28;20416;-69
2021/09/26 01:56:25;;;;;;;6.20;4.22;;;;;;;13.32;100.00;95365.31;10242982;28;20035;-67
2021/09/26 02:01:26;;;;;;;7.18;5.05;;;;;;;13.37;100.00;95373.44;10227247;29;20031;-67
2021/09/26 02:06:27;;;;;;;3.78;3.33;;;;;;;13.25;100.00;95364.81;10227082;29;20035;-70
2021/09/26 02:11:28;;;;;;;7.82;4.25;;;;;;;13.21;100.00;95369.13;10241880;28;20027;-71
2021/09/26 02:16:29;;;;;;;7.60;5.00;;;;;;;12.98;100.00;95364.03;10258350;28;20400;-66
2021/09/26 02:21:31;;;;;;;5.82;3.75;;;;;;;12.98;100.00;95365.94;10242253;28;20041;-69
2021/09/26 02:26:34;;;;;;;8.25;4.20;;;;;;;12.89;100.00;95372.97;10242758;28;20027;-70
2021/09/26 02:31:37;;;;;;;6.18;4.05;;;;;;;12.88;100.00;95371.34;10241768;29;20036;-68
2021/09/26 02:36:37;;;;;;;7.15;4.00;;;;;;;12.88;100.00;95371.34;10242717;28;20155;-66
2021/09/26 02:42:15;;;;;;;7.57;5.20;;;;;;;12.72;100.00;95378.66;10241074;28;20034;-69
2021/09/26 02:47:24;;;;;;;6.57;4.28;;;;;;;12.78;100.00;95391.03;10241518;28;20058;-68
2021/09/26 02:52:25;;;;;;;6.78;4.43;;;;;;;12.75;100.00;95397.78;10240687;28;20109;-73
2021/09/26 02:57:26;;;;;;;7.60;4.03;;;;;;;12.63;100.00;95394.56;10256895;28;20035;-68
2021/09/26 03:02:31;;;;;;;11.15;5.35;;;;;;;12.42;100.00;95402.63;10240404;28;20031;-68
2021/09/26 03:07:32;;;;;;;8.85;5.10;;;;;;;12.26;100.00;95403.69;10256518;28;20039;-72
2021/09/26 03:12:33;;;;;;;5.63;4.40;;;;;;;12.12;100.00;95404.19;10255355;28;20033;-69
2021/09/26 03:17:33;;;;;;;11.13;4.82;;;;;;;11.97;100.00;95398.78;10240003;29;20409;-68
2021/09/26 03:22:34;;;;;;;9.98;6.22;;;;;;;11.95;100.00;95400.94;10240762;28;20031;-68
2021/09/26 03:27:34;;;;;;;7.53;4.60;;;;;;;11.97;100.00;95398.78;10240027;28;20489;-76
2021/09/26 03:32:35;;;;;;;10.95;6.43;;;;;;;11.95;100.00;95392.84;10240376;29;20413;-67
2021/09/26 03:37:36;;;;;;;8.70;4.78;;;;;;;12.02;100.00;95392.59;10238543;28;20082;-70
2021/09/26 03:42:38;;;;;;;10.32;5.60;;;;;;;11.96;100.00;95389.88;10238624;28;20383;-64
2021/09/26 03:47:39;;;;;;;9.98;5.88;;;;;;;11.97;100.00;95393.38;10222556;28;20098;-69
2021/09/26 03:52:40;;;;;;;6.85;4.53;;;;;;;11.99;100.00;95393.13;10237919;28;20055;-72
2021/09/26 03:57:41;;;;;;;7.82;5.30;;;;;;;12.04;100.00;95393.97;10238252;28;20042;-71
2021/09/26 04:02:42;;;;;;;7.57;5.68;;;;;;;12.06;100.00;95397.19;10237472;28;20034;-68
2021/09/26 04:07:42;;;;;;;8.20;5.28;;;;;;;12.01;100.00;95394.47;10237491;28;20352;-69
2021/09/26 04:12:45;;;;;;;5.78;4.63;;;;;;;11.94;100.00;95400.13;10237572;28;20028;-68
2021/09/26 04:17:45;;;;;;;7.35;5.22;;;;;;;11.89;100.00;95410.84;10237286;28;20472;-67
2021/09/26 04:22:46;;;;;;;10.10;5.55;;;;;;;11.72;100.00;95411.06;10300819;23;20441;-69
2021/09/26 04:27:46;;;;;;;6.68;4.78;;;;;;;11.61;100.00;95415.59;10278439;28;20038;-68
2021/09/26 04:32:47;;;;;;;9.48;6.20;;;;;;;11.61;100.00;95412.09;10276509;28;20031;-74
2021/09/26 04:37:47;;;;;;;6.00;4.80;;;;;;;11.66;100.00;95414.78;10276403;28;20034;-68
2021/09/26 04:42:48;;;;;;;11.70;5.25;;;;;;;11.59;100.00;95420.41;10276626;28;20298;-69
2021/09/26 04:47:48;;;;;;;6.53;4.78;;;;;;;11.50;100.00;95427.38;10236510;28;20126;-68
2021/09/26 04:52:49;;;;;;;8.60;5.38;;;;;;;11.53;100.00;95416.09;10237773;28;20035;-77
2021/09/26 04:57:49;;;;;;;8.25;5.13;;;;;;;11.60;100.00;95423.94;10236905;28;20081;-67
2021/09/26 05:02:50;;;;;;;10.10;5.57;;;;;;;11.66;100.00;95422.88;10221050;28;20043;-74
2021/09/26 05:07:51;;;;;;;7.55;5.28;;;;;;;11.75;100.00;95418.63;10212044;28;20032;-70
2021/09/26 05:12:51;;;;;;;12.05;5.45;;;;;;;11.89;100.00;95432.41;10233273;28;20042;-73
2021/09/26 05:17:52;;;;;;;7.53;4.77;;;;;;;12.02;100.00;95414.97;10212955;28;20513;-71
2021/09/26 05:22:53;;;;;;;9.50;4.60;;;;;;;12.08;100.00;95419.28;10216181;28;20299;-69
2021/09/26 05:27:54;;;;;;;7.97;5.10;;;;;;;12.40;100.00;95426.34;10198995;28;20031;-74
2021/09/26 05:32:54;;;;;;;5.82;4.13;;;;;;;12.50;100.00;95414.75;10232443;29;20470;-73
2021/09/26 05:37:56;;;;;;;8.83;5.33;;;;;;;12.72;100.00;95421.81;10233295;28;20377;-72
2021/09/26 05:42:57;;;;;;;14.38;5.15;;;;;;;12.99;100.00;95422.34;10236788;28;20736;-69
2021/09/26 05:47:57;;;;;;;7.90;4.57;;;;;;;13.23;100.00;95423.63;10235150;28;20077;-68
2021/09/26 05:52:58;;;;;;;8.20;4.60;;;;;;;13.47;100.00;95432.00;10234710;28;20820;-75
2021/09/26 05:57:58;;;;;;;14.68;5.97;;;;;;;13.84;100.00;95423.50;10251419;28;20366;-75
2021/09/26 06:02:59;;;;;;;9.90;6.17;;;;;;;14.23;100.00;95432.75;10244073;28;20031;-75
2021/09/26 06:07:59;;;;;;;7.85;5.30;;;;;;;14.53;100.00;95429.06;10242548;28;20074;-74
2021/09/26 06:12:59;;;;;;;10.67;5.73;;;;;;;14.66;100.00;95430.34;10250748;28;20098;-70
2021/09/26 06:18:00;;;;;;;10.88;7.05;;;;;;;15.11;100.00;95429.47;10242204;28;20349;-70
2021/09/26 06:23:00;;;;;;;7.38;5.40;;;;;;;15.36;100.00;95425.69;10242934;28;20502;-71
2021/09/26 06:28:01;;;;;;;10.23;6.72;;;;;;;15.69;100.00;95434.03;10239198;28;20438;-73
2021/09/26 06:33:03;;;;;;;7.70;6.03;;;;;;;16.08;100.00;95422.22;10239965;28;20576;-69
2021/09/26 06:38:03;;;;;;;11.07;5.78;;;;;;;16.50;100.00;95419.75;10241998;28;20038;-71
2021/09/26 06:43:04;;;;;;;8.80;5.35;;;;;;;16.81;100.00;95422.78;10232089;28;20459;-70
2021/09/26 06:48:05;;;;;;;9.32;5.95;;;;;;;17.37;100.00;95417.53;10198404;29;20178;-75
2021/09/26 06:53:05;;;;;;;8.70;5.32;;;;;;;18.76;100.00;95425.59;10216606;28;20445;-71
2021/09/26 06:58:05;;;;;;;8.60;5.10;;;;;;;19.16;100.00;95422.22;10216052;28;20490;-72
2021/09/26 07:03:06;;;;;;;13.07;5.83;;;;;;;19.57;100.00;95416.50;10201272;29;20268;-71
2021/09/26 07:08:06;;;;;;;10.20;4.32;;;;;;;21.61;85.72;95415.25;10201944;29;20287;-69
2021/09/26 07:13:07;;;;;;;8.23;5.28;;;;;;;21.94;80.38;95420.13;10215156;28;20134;-72
2021/09/26 07:18:07;;;;;;;7.75;4.00;;;;;;;22.07;83.65;95422.97;10201155;29;20059;-73
2021/09/26 07:23:08;;;;;;;6.63;4.18;;;;;;;22.55;74.47;95412.72;10200373;29;20160;-72
2021/09/26 07:28:08;;;;;;;12.32;5.15;;;;;;;21.97;83.04;95422.19;10198860;28;20082;-74
2021/09/26 07:33:09;;;;;;;10.55;4.22;;;;;;;23.10;70.36;95413.56;10179905;29;20405;-74
2021/09/26 07:38:09;;;;;;;6.38;3.42;;;;;;;23.95;62.67;95414.94;10222549;29;20034;-72
2021/09/26 07:43:10;;;;;;;6.23;4.13;;;;;;;23.69;58.81;95420.72;10197755;29;20122;-69
2021/09/26 07:48:10;;;;;;;5.10;3.97;;;;;;;25.47;54.93;95411.19;10200363;29;20267;-72
2021/09/26 07:53:11;;;;;;;6.18;3.58;;;;;;;28.52;43.93;95409.59;10197691;29;20027;-75
2021/09/26 07:58:11;;;;;;;4.90;3.30;;;;;;;30.27;39.84;95400.94;10248281;28;20369;-71
2021/09/26 08:03:12;;;;;;;10.00;3.50;;;;;;;31.19;37.24;95408.22;10237376;28;20030;-77
2021/09/26 08:08:12;;;;;;;14.13;3.53;;;;;;;32.68;35.13;95411.97;10236861;28;20469;-71
2021/09/26 08:13:15;;;;;;;10.13;3.73;;;;;;;33.83;32.43;95400.41;10207101;28;20578;-69
2021/09/26 08:18:15;;;;;;;9.07;3.40;;;;;;;35.20;31.77;95395.56;10196971;29;20375;-72
2021/09/26 08:23:15;;;;;;;4.53;3.17;;;;;;;34.15;31.98;95391.00;10217579;28;20025;-69
2021/09/26 08:28:16;;;;;;;6.15;3.40;;;;;;;31.44;34.82;95388.06;10236041;28;20791;-76
2021/09/26 08:33:16;;;;;;;6.10;3.77;;;;;;;28.80;38.62;95398.97;10236895;28;20031;-70
2021/09/26 08:38:17;;;;;;;5.30;3.47;;;;;;;27.51;43.42;95389.41;10237555;28;20026;-76
2021/09/26 08:43:19;;;;;;;11.23;3.58;;;;;;;26.26;44.82;95391.94;10213850;28;20023;-70
2021/09/26 08:48:20;;;;;;;4.70;3.50;;;;;;;25.29;53.22;95383.97;10199424;29;20043;-73
2021/09/26 08:53:25;;;;;;;11.63;4.55;;;;;;;24.78;52.31;95378.22;10246731;28;20039;-76
2021/09/26 08:58:25;;;;;;;8.55;4.43;;;;;;;24.89;56.10;95380.16;10237495;28;20027;-70
2021/09/26 09:03:25;;;;;;;9.45;4.35;;;;;;;25.24;55.13;95374.03;10203295;29;20489;-76
2021/09/26 09:08:26;;;;;;;5.57;3.92;;;;;;;25.40;49.66;95374.06;10236232;28;20058;-70
2021/09/26 09:13:30;;;;;;;9.27;4.40;;;;;;;25.48;53.44;95368.75;10224032;28;20445;-76
2021/09/26 09:18:44;;;;;;;7.75;3.85;;;;;;;25.71;50.62;95363.44;10211889;28;20173;-69
2021/09/26 09:23:46;;;;;;;4.93;3.17;;;;;;;25.75;51.16;95359.59;10212085;28;20023;-73
2021/09/26 09:28:48;;;;;;;5.85;3.28;;;;;;;26.31;48.08;95362.50;10196299;28;20079;-73
2021/09/26 09:33:48;;;;;;;4.65;2.80;;;;;;;29.01;40.14;95356.16;10213255;28;20467;-73
2021/09/26 09:38:56;;;;;;;4.73;2.83;;;;;;;31.39;36.61;95349.56;10246601;28;20033;-73
2021/09/26 09:43:56;;;;;;;7.28;2.50;;;;;;;32.71;33.82;95350.75;10243581;28;20023;-73
2021/09/26 09:49:20;;;;;;;3.22;2.40;;;;;;;35.08;30.32;95333.44;10240108;28;20035;-73
2021/09/26 09:54:38;;;;;;;4.88;2.28;;;;;;;35.04;30.27;95329.09;10219253;28;20028;-70
2021/09/26 09:59:39;;;;;;;4.78;2.42;;;;;;;38.23;26.32;95322.78;10218509;29;20391;-72
2021/09/26 10:04:44;;;;;;;3.83;2.30;;;;;;;39.18;24.83;95310.56;10217904;28;20020;-70
2021/09/26 10:09:44;;;;;;;3.05;1.88;;;;;;;40.22;24.00;95303.69;10202547;29;20023;-71
2021/09/26 10:14:45;;;;;;;6.20;2.10;;;;;;;39.54;24.39;95298.22;10218023;28;20502;-70
2021/09/26 10:19:45;;;;;;;3.85;2.35;;;;;;;40.72;23.81;95289.88;10256623;28;20403;-72
2021/09/26 10:24:48;;;;;;;3.60;2.20;;;;;;;39.82;23.36;95277.63;10241597;28;20027;-73
2021/09/26 10:29:53;;;;;;;3.58;2.20;;;;;;;41.24;23.03;95274.25;10239852;28;20058;-73
2021/09/26 10:34:54;;;;;;;10.13;2.63;;;;;;;41.83;22.98;95265.09;10240404;29;20038;-73
2021/09/26 10:39:55;;;;;;;4.45;2.53;;;;;;;42.16;21.87;95267.38;10240099;28;20027;-67
2021/09/26 10:45:04;;;;;;;2.20;1.70;;;;;;;42.89;20.77;95262.19;10241690;28;20031;-71
2021/09/26 10:50:15;;;;;;;3.38;2.03;;;;;;;42.64;20.71;95255.63;10224839;29;20024;-74
2021/09/26 10:55:17;;;;;;;3.95;2.28;;;;;;;42.40;21.33;95235.69;10197893;28;20043;-76
2021/09/26 11:00:42;;;;;;;10.73;2.63;;;;;;;42.84;20.17;95233.31;10210158;28;20540;-71
2021/09/26 11:05:48;;;;;;;3.38;1.83;;;;;;;42.12;20.15;95224.38;10194144;29;20043;-73
2021/09/26 11:10:58;;;;;;;5.78;2.50;;;;;;;40.02;22.30;95219.47;10213821;28;20031;-74
2021/09/26 11:16:04;;;;;;;7.30;2.83;;;;;;;38.47;24.13;95216.63;10195051;29;20031;-71
2021/09/26 11:21:04;;;;;;;4.20;2.65;;;;;;;36.97;25.50;95211.53;10205420;29;20048;-71
2021/09/26 11:26:06;;;;;;;5.50;2.20;;;;;;;33.25;28.70;95204.13;10189191;29;20035;-68
2021/09/26 11:31:53;;;;;;;3.97;2.30;;;;;;;30.68;30.07;95201.81;10204895;29;20669;-71
2021/09/26 11:36:53;;;;;;;6.57;2.88;;;;;;;28.90;33.55;95198.31;10233783;29;20051;-68
2021/09/26 11:41:54;;;;;;;12.60;3.70;;;;;;;28.99;33.77;95187.69;10238468;28;20406;-74
2021/09/26 11:46:56;;;;;;;5.28;3.42;;;;;;;28.86;34.04;95199.44;10222302;29;20473;-73
2021/09/26 11:51:58;;;;;;;8.05;3.60;;;;;;;28.78;34.40;95180.00;10226156;28;20118;-73
2021/09/26 11:56:59;;;;;;;6.57;4.25;;;;;;;28.60;35.19;95176.25;10221085;28;20113;-71
2021/09/26 12:02:10;;;;;;;8.45;4.07;;;;;;;28.47;35.27;95175.72;10254153;28;20174;-73
2021/09/26 12:07:11;;;;;;;7.50;3.38;;;;;;;28.40;35.40;95172.88;10237821;28;20532;-73
2021/09/26 12:12:30;;;;;;;13.43;3.63;;;;;;;27.88;35.73;95167.88;10237053;29;20039;-71
2021/09/26 12:17:32;;;;;;;6.03;3.20;;;;;;;27.76;37.58;95157.84;10200527;28;20725;-69
2021/09/26 12:22:34;;;;;;;6.07;2.80;;;;;;;27.65;37.28;95159.66;10183738;29;20099;-73
2021/09/26 12:27:37;;;;;;;7.15;3.67;;;;;;;27.77;36.32;95145.63;10253101;28;20420;-77
2021/09/26 12:32:51;;;;;;;5.93;3.55;;;;;;;27.25;36.73;95142.50;10198184;28;20036;-70
2021/09/26 12:37:58;;;;;;;4.15;3.08;;;;;;;27.12;38.26;95130.06;10197248;29;20035;-71
2021/09/26 12:43:00;;;;;;;5.28;3.08;;;;;;;27.31;37.81;95131.13;10212872;28;20053;-73
2021/09/26 12:48:02;;;;;;;4.47;3.20;;;;;;;27.34;36.73;95119.38;10196986;28;20118;-70
2021/09/26 12:53:06;;;;;;;4.38;3.08;;;;;;;27.28;36.76;95105.88;10212423;28;20090;-74
2021/09/26 12:58:07;;;;;;;5.70;3.25;;;;;;;27.24;35.71;95101.50;10212776;28;20395;-75
2021/09/26 13:03:18;;;;;;;11.07;3.25;;;;;;;27.12;33.79;95097.75;10212194;29;20036;-72
2021/09/26 13:08:28;;;;;;;4.65;3.45;;;;;;;27.08;33.81;95088.63;10215301;28;20070;-69
2021/09/26 13:13:35;;;;;;;8.43;3.00;;;;;;;26.98;34.14;95097.53;10187209;28;20091;-73
2021/09/26 13:18:35;;;;;;;9.13;3.23;;;;;;;26.85;34.08;95087.88;10204065;29;20123;-74
2021/09/26 13:23:36;;;;;;;4.43;3.10;;;;;;;26.89;33.71;95080.44;10222649;28;20083;-74
2021/09/26 13:28:49;;;;;;;3.70;2.70;;;;;;;26.83;33.45;95079.97;10242181;28;20548;-71
2021/09/26 13:34:01;;;;;;;4.43;2.55;;;;;;;26.75;32.91;95070.00;10224205;28;20126;-73
2021/09/26 13:39:09;;;;;;;7.93;2.88;;;;;;;26.69;32.37;95061.22;10237494;28;20035;-74
2021/09/26 13:44:15;;;;;;;;;;;;;;;26.63;33.06;95056.41;10243201;28;20034;-72
2021/09/26 13:49:16;;;;;;;3.65;2.33;;;;;;;26.55;32.38;95049.94;10242534;29;20385;-73
2021/09/26 13:54:17;;;;;;;4.28;1.98;;;;;;;26.46;32.50;95058.47;10219029;28;20031;-73
2021/09/26 13:59:17;;;;;;;5.22;2.65;;;;;;;26.42;35.13;95055.66;10204126;29;20494;-74
2021/09/26 14:04:18;;;;;;;4.57;2.90;;;;;;;26.23;34.71;95048.25;10202402;29;20035;-70
2021/09/26 14:09:19;;;;;;;2.42;2.15;;;;;;;26.22;33.77;95051.34;10201858;29;20217;-73
2021/09/26 14:14:19;;;;;;;5.97;2.93;;;;;;;26.17;34.90;95043.41;10205269;29;20034;-71
2021/09/26 14:19:20;;;;;;;6.22;2.40;;;;;;;26.09;32.55;95036.97;10212160;29;20161;-73
2021/09/26 14:24:21;;;;;;;3.55;2.50;;;;;;;26.05;35.33;95031.41;10223812;28;20409;-71
2021/09/26 14:29:22;;;;;;;3.72;2.40;;;;;;;25.95;35.15;95031.97;10223173;28;20028;-76
2021/09/26 14:34:24;;;;;;;11.07;4.57;;;;;;;25.87;33.64;95027.47;10249191;28;20082;-68
2021/09/26 14:39:24;;;;;;;3.65;2.50;;;;;;;25.75;35.38;95031.19;10229782;28;20032;-70
2021/09/26 14:44:25;;;;;;;5.05;2.65;;;;;;;25.69;36.68;95029.88;10178075;29;20437;-73
2021/09/26 14:49:25;;;;;;;4.00;2.22;;;;;;;25.56;35.31;95021.81;10230253;29;20031;-70
2021/09/26 14:54:26;;;;;;;4.35;2.95;;;;;;;25.40;36.01;95016.34;10239090;28;20057;-73
2021/09/26 14:59:26;;;;;;;9.73;5.53;;;;;;;25.29;39.50;95018.06;10241366;28;20031;-69
2021/09/26 15:04:27;;;;;;;7.20;3.72;;;;;;;25.16;38.86;95019.34;10235520;28;20032;-73
2021/09/26 15:09:27;;;;;;;6.27;3.90;;;;;;;24.99;43.17;95015.03;10215435;29;20119;-72
2021/09/26 15:14:28;;;;;;;13.90;4.17;;;;;;;24.80;43.41;95013.84;10214925;28;20051;-76
2021/09/26 15:19:28;;;;;;;6.65;4.15;;;;;;;24.73;43.35;95005.47;10212272;28;20607;-67
2021/09/26 15:24:29;;;;;;;11.02;3.85;;;;;;;24.62;45.33;95009.91;10199194;29;20023;-72
2021/09/26 15:29:30;;;;;;;7.05;3.92;;;;;;;24.53;47.29;95005.38;10214471;28;20027;-73
2021/09/26 15:34:30;;;;;;;6.55;4.13;;;;;;;24.21;46.36;95010.88;10198399;29;20036;-74
2021/09/26 15:39:31;;;;;;;8.23;4.28;;;;;;;24.19;49.43;95007.66;10213837;29;20519;-67
2021/09/26 15:44:32;;;;;;;7.68;4.25;;;;;;;23.94;47.16;95004.28;10211771;28;20426;-71
2021/09/26 15:49:34;;;;;;;11.38;4.07;;;;;;;23.82;50.13;95007.88;10212520;29;20039;-72
2021/09/26 15:54:34;;;;;;;7.38;3.80;;;;;;;23.58;49.35;95010.75;10214882;28;20106;-68
2021/09/26 15:59:34;;;;;;;16.17;4.80;;;;;;;23.49;57.85;95008.16;10198783;29;20478;-70
2021/09/26 16:04:35;;;;;;;14.10;6.03;;;;;;;23.21;62.77;95012.47;10213201;28;20031;-73
2021/09/26 16:09:35;;;;;;;8.67;4.20;;;;;;;22.72;52.86;95004.34;10236464;29;20297;-68
2021/09/26 16:14:36;;;;;;;11.00;3.97;;;;;;;22.56;52.09;95001.47;10234331;28;20286;-69
2021/09/26 16:19:36;;;;;;;9.77;4.90;;;;;;;22.36;55.64;95014.94;10206506;28;20122;-69
2021/09/26 16:24:37;;;;;;;7.13;4.32;;;;;;;22.19;53.24;95010.47;10213740;28;20024;-71
2021/09/26 16:29:37;;;;;;;11.18;3.92;;;;;;;22.02;50.08;95016.16;10212234;28;20039;-73
2021/09/26 16:34:38;;;;;;;9.55;3.75;;;;;;;21.78;52.75;95017.69;10212087;28;20038;-70
2021/09/26 16:39:39;;;;;;;13.75;5.25;;;;;;;21.64;54.68;95014.44;10201412;28;20039;-71
2021/09/26 16:44:39;;;;;;;12.93;5.63;;;;;;;21.59;58.01;95020.16;10169775;29;20040;-70
2021/09/26 16:49:40;;;;;;;12.57;5.70;;;;;;;21.43;56.80;95020.72;10199240;29;20271;-70
2021/09/26 16:54:40;;;;;;;12.03;6.07;;;;;;;21.24;58.90;95018.47;10213051;28;20310;-74
2021/09/26 16:59:41;;;;;;;16.20;6.40;;;;;;;21.14;58.18;95021.59;10195872;29;20287;-76
2021/09/26 17:04:41;;;;;;;9.77;5.07;;;;;;;21.02;57.76;95032.50;10211220;29;20062;-72
2021/09/26 17:09:41;;;;;;;11.97;5.00;;;;;;;20.96;60.09;95037.34;10210176;29;20031;-69
2021/09/26 17:14:43;;;;;;;15.50;7.38;;;;;;;20.88;66.81;95039.00;10193829;28;20342;-73
2021/09/26 17:19:44;;;;;;;7.68;4.70;;;;;;;20.70;58.24;95048.44;10193536;28;20433;-70
2021/09/26 17:24:45;;;;;;;9.52;4.97;;;;;;;20.63;64.26;95046.97;10194744;29;20031;-72
2021/09/26 17:29:45;;;;;;;7.15;4.80;;;;;;;20.47;58.78;95059.59;10209425;28;20023;-68
2021/09/26 17:34:45;;;;;;;8.13;5.13;;;;;;;20.34;58.66;95066.09;10207831;29;20083;-71
2021/09/26 17:39:47;;;;;;;8.27;3.60;;;;;;;20.16;63.27;95077.06;10210734;29;20037;-67
2021/09/26 17:44:47;;;;;;;12.35;4.82;;;;;;;20.02;67.93;95079.19;10190779;29;20284;-71
2021/09/26 17:49:48;;;;;;;13.03;4.27;;;;;;;19.95;65.89;95077.78;10191547;29;20478;-68
2021/09/26 17:54:50;;;;;;;7.70;4.32;;;;;;;19.74;64.74;95065.91;10209094;28;20287;-72
2021/09/26 17:59:50;;;;;;;11.05;6.18;;;;;;;19.68;65.87;95072.66;10214385;28;20062;-70
2021/09/26 18:04:51;;;;;;;13.05;6.25;;;;;;;19.52;67.70;95081.34;10196755;29;20022;-69
2021/09/26 18:09:51;;;;;;;9.80;6.17;;;;;;;19.42;67.06;95084.38;10213390;28;20126;-73
2021/09/26 18:14:52;;;;;;;10.30;6.20;;;;;;;19.41;70.05;95085.47;10214886;28;20394;-71
2021/09/26 18:19:52;;;;;;;9.82;5.57;;;;;;;19.30;70.45;95088.53;10214680;28;20531;-72
2021/09/26 18:24:53;;;;;;;11.05;5.82;;;;;;;19.15;71.13;95083.56;10214880;28;20050;-75
2021/09/26 18:29:54;;;;;;;16.30;5.60;;;;;;;18.98;73.63;95088.97;10214904;28;20465;-74
2021/09/26 18:34:55;;;;;;;10.23;5.53;;;;;;;18.79;75.57;95088.09;10196835;29;20032;-72
2021/09/26 18:39:55;;;;;;;14.15;5.93;;;;;;;18.78;80.80;95088.41;10219646;28;20038;-72
2021/09/26 18:44:55;;;;;;;13.97;6.50;;;;;;;18.66;78.92;95093.69;10200015;29;20094;-72
2021/09/26 18:49:56;;;;;;;9.63;5.10;;;;;;;18.62;79.70;95097.03;10198559;29;20360;-68
2021/09/26 18:54:57;;;;;;;9.13;5.00;;;;;;;18.57;78.35;95097.19;10201217;29;20298;-74
2021/09/26 18:59:58;;;;;;;9.95;4.60;;;;;;;18.50;69.85;95085.94;10215151;28;20552;-69
2021/09/26 19:04:59;;;;;;;6.15;3.90;;;;;;;18.47;69.23;95092.00;10214303;29;20395;-67
2021/09/26 19:10:00;;;;;;;19.85;11.20;;;;;;;18.48;70.29;95093.63;10199264;28;20032;-73
2021/09/26 19:15:00;;;;;;;5.32;4.18;;;;;;;18.38;74.27;95094.72;10214956;29;20040;-70
2021/09/26 19:20:00;;;;;;;6.30;4.22;;;;;;;18.30;77.45;95095.47;10198962;29;20059;-70
2021/09/26 19:25:01;;;;;;;7.17;4.23;;;;;;;18.25;78.95;95101.88;10198357;29;20067;-68
2021/09/26 19:30:04;;;;;;;6.82;3.60;;;;;;;18.12;81.71;95099.22;10213299;28;20282;-70
2021/09/26 19:35:05;;;;;;;9.63;4.97;;;;;;;18.04;83.55;95089.91;10192997;29;20031;-70
2021/09/26 19:40:06;;;;;;;6.30;3.90;;;;;;;18.02;84.05;95097.59;10213830;29;20525;-74
2021/09/26 19:45:09;;;;;;;8.10;4.13;;;;;;;17.98;83.38;95093.88;10189403;29;20027;-70
2021/09/26 19:50:10;;;;;;;8.45;4.00;;;;;;;17.82;85.60;95091.50;10192920;29;20067;-68
2021/09/26 19:55:12;;;;;;;9.40;4.32;;;;;;;17.76;85.96;95092.75;10196236;29;20031;-68
2021/09/26 20:00:16;;;;;;;6.18;3.80;;;;;;;17.58;87.33;95105.41;10199894;29;20027;-71
2021/09/26 20:05:17;;;;;;;9.05;3.47;;;;;;;17.41;87.05;95106.91;10223451;29;20034;-69
2021/09/26 20:10:18;;;;;;;8.40;3.93;;;;;;;17.38;87.88;95104.78;10213887;28;20403;-73
2021/09/26 20:15:27;;;;;;;5.82;3.42;;;;;;;17.32;89.39;95102.50;10196937;29;20291;-70
2021/09/26 20:20:29;;;;;;;7.65;3.88;;;;;;;17.28;90.40;95091.44;10250173;28;20149;-71
2021/09/26 20:25:30;;;;;;;6.18;3.33;;;;;;;17.29;91.95;95103.09;10193086;29;20040;-74
2021/09/26 20:30:31;;;;;;;7.30;3.38;;;;;;;17.16;95.22;95104.75;10180377;29;20027;-69
2021/09/26 20:35:31;;;;;;;4.90;3.78;;;;;;;17.04;98.15;95102.56;10201595;29;20064;-73
2021/09/26 20:40:33;;;;;;;4.57;3.20;;;;;;;16.83;100.00;95102.16;10236273;29;20114;-68
2021/09/26 20:45:38;;;;;;;7.55;4.68;;;;;;;16.57;100.00;95098.06;10239665;28;20078;-67
2021/09/26 20:50:40;;;;;;;7.72;4.60;;;;;;;16.35;100.00;95098.78;10198305;29;20139;-74
2021/09/26 20:55:41;;;;;;;6.03;3.70;;;;;;;16.25;100.00;95100.88;10212170;28;20032;-67
2021/09/26 21:00:43;;;;;;;7.72;3.97;;;;;;;16.16;100.00;95100.75;10213312;29;20035;-71
2021/09/26 21:05:44;;;;;;;5.28;3.70;;;;;;;16.09;100.00;95095.75;10214866;28;20498;-69
2021/09/26 21:10:45;;;;;;;9.10;4.07;;;;;;;16.00;100.00;95097.53;10196579;29;20373;-75
2021/09/26 21:15:46;;;;;;;5.65;4.57;;;;;;;16.04;100.00;95098.53;10198864;29;20103;-72
2021/09/26 21:20:50;;;;;;;5.82;4.07;;;;;;;15.83;100.00;95101.59;10236929;28;20086;-70
2021/09/26 21:25:51;;;;;;;5.07;4.15;;;;;;;15.69;100.00;95093.41;10251620;28;20173;-73
2021/09/26 21:30:52;;;;;;;4.25;3.63;;;;;;;15.69;100.00;95098.03;10240316;28;20083;-68
2021/09/26 21:35:52;;;;;;;11.55;4.78;;;;;;;15.59;100.00;95099.00;10220800;28;20047;-69
2021/09/26 21:40:56;;;;;;;7.28;3.67;;;;;;;15.63;100.00;95100.03;10219767;28;20398;-72
2021/09/26 21:46:00;;;;;;;5.15;3.67;;;;;;;15.65;100.00;95102.44;10203982;28;20498;-74
2021/09/26 21:51:00;;;;;;;7.30;4.13;;;;;;;15.70;100.00;95089.59;10250084;28;20038;-72
2021/09/26 21:56:02;;;;;;;6.53;4.10;;;;;;;15.74;100.00;95100.66;10241869;28;20512;-68
2021/09/26 22:01:06;;;;;;;5.85;4.28;;;;;;;15.61;100.00;95101.41;10257983;28;20035;-71
2021/09/26 22:06:07;;;;;;;5.80;4.25;;;;;;;15.49;100.00;95102.69;10243182;28;20386;-72
2021/09/26 22:11:12;;;;;;;8.10;4.90;;;;;;;15.45;100.00;95106.28;10226500;28;20062;-67
2021/09/26 22:16:13;;;;;;;12.27;5.53;;;;;;;15.35;100.00;95112.66;10258420;28;20039;-69
2021/09/26 22:21:21;;;;;;;8.38;4.50;;;;;;;15.29;100.00;95094.84;10257808;28;20139;-70
2021/09/26 22:26:22;;;;;;;5.63;4.33;;;;;;;15.19;100.00;95102.03;10241459;28;20114;-72
2021/09/26 22:31:25;;;;;;;8.30;4.75;;;;;;;15.12;100.00;95093.47;10241618;28;20033;-70
2021/09/26 22:36:26;;;;;;;10.82;5.03;;;;;;;15.04;100.00;95096.84;10231418;28;20385;-68
2021/09/26 22:41:26;;;;;;;9.13;5.80;;;;;;;14.88;100.00;95101.66;10225454;28;20058;-69
2021/09/26 22:46:27;;;;;;;8.65;5.32;;;;;;;14.88;100.00;95090.03;10208241;28;20031;-68
2021/09/26 22:51:27;;;;;;;9.13;6.40;;;;;;;14.68;100.00;95100.84;10201004;29;20036;-68
2021/09/26 22:56:28;;;;;;;8.45;5.63;;;;;;;14.66;100.00;95100.31;10244574;28;20034;-73
2021/09/26 23:01:37;;;;;;;8.97;5.60;;;;;;;14.50;100.00;95096.97;10240997;28;20466;-70
2021/09/26 23:06:37;;;;;;;11.52;5.72;;;;;;;14.56;100.00;95094.22;10211499;28;20272;-74
2021/09/26 23:11:38;;;;;;;8.05;5.85;;;;;;;14.52;100.00;95083.94;10200892;29;20461;-72
2021/09/26 23:16:38;;;;;;;15.43;5.50;;;;;;;14.49;100.00;95091.84;10202227;29;20114;-67